sensor_id;sensor_type;location;lat;lon;timestamp;pressure;altitude;pressure_sealevel;temperature;humidity
32638;BME280;19045;52.268;10.506;2023-03-05T00:01:15;100845.00;;;2.91;95.17
32638;BME280;19045;52.268;10.506;2023-03-05T00:03:42;100843.75;;;2.87;94.93
32638;BME280;19045;52.268;10.506;2023-03-05T00:06:09;100838.47;;;2.87;95.73
32638;BME280;19045;52.268;10.506;2023-03-05T00:08:37;100849.06;;;2.87;95.78
32638;BME280;19045;52.268;10.506;2023-03-05T00:11:06;100836.41;;;2.89;95.87
32638;BME280;19045;52.268;10.506;2023-03-05T00:13:34;100847.00;;;2.82;96.86
32638;BME280;19045;52.268;10.506;2023-03-05T00:16:02;100840.06;;;2.81;96.76
32638;BME280;19045;52.268;10.506;2023-03-05T00:18:28;100841.69;;;2.82;96.99
32638;BME280;19045;52.268;10.506;2023-03-05T00:20:55;100829.84;;;2.78;96.97
32638;BME280;19045;52.268;10.506;2023-03-05T00:23:22;100833.72;;;2.82;97.27
32638;BME280;19045;52.268;10.506;2023-03-05T00:25:50;100833.31;;;2.79;97.44
32638;BME280;19045;52.268;10.506;2023-03-05T00:28:17;100836.78;;;2.79;96.88
32638;BME280;19045;52.268;10.506;2023-03-05T00:30:43;100831.22;;;2.68;97.95
32638;BME280;19045;52.268;10.506;2023-03-05T00:33:11;100824.56;;;2.78;97.03
32638;BME280;19045;52.268;10.506;2023-03-05T00:35:39;100814.13;;;2.77;97.60
32638;BME280;19045;52.268;10.506;2023-03-05T00:38:06;100828.81;;;2.79;97.15
32638;BME280;19045;52.268;10.506;2023-03-05T00:40:34;100822.25;;;2.75;97.48
32638;BME280;19045;52.268;10.506;2023-03-05T00:43:03;100817.34;;;2.72;97.37
32638;BME280;19045;52.268;10.506;2023-03-05T00:45:30;100816.56;;;2.72;97.97
32638;BME280;19045;52.268;10.506;2023-03-05T00:47:57;100815.78;;;2.78;96.70
32638;BME280;19045;52.268;10.506;2023-03-05T00:50:24;100810.03;;;2.74;97.12
32638;BME280;19045;52.268;10.506;2023-03-05T00:52:50;100798.63;;;2.80;95.74
32638;BME280;19045;52.268;10.506;2023-03-05T00:55:17;100803.09;;;2.73;96.37
32638;BME280;19045;52.268;10.506;2023-03-05T00:57:44;100806.75;;;2.72;96.47
32638;BME280;19045;52.268;10.506;2023-03-05T01:00:14;100810.00;;;2.68;96.63
32638;BME280;19045;52.268;10.506;2023-03-05T01:02:41;100796.31;;;2.64;96.56
32638;BME280;19045;52.268;10.506;2023-03-05T01:05:09;100799.81;;;2.71;97.09
32638;BME280;19045;52.268;10.506;2023-03-05T01:07:36;100790.38;;;2.62;96.39
32638;BME280;19045;52.268;10.506;2023-03-05T01:10:04;100796.72;;;2.61;96.58
32638;BME280;19045;52.268;10.506;2023-03-05T01:12:31;100790.75;;;2.59;97.03
32638;BME280;19045;52.268;10.506;2023-03-05T01:14:57;100784.84;;;2.57;97.88
32638;BME280;19045;52.268;10.506;2023-03-05T01:17:25;100788.94;;;2.59;96.88
32638;BME280;19045;52.268;10.506;2023-03-05T01:19:52;100784.47;;;2.60;97.86
32638;BME280;19045;52.268;10.506;2023-03-05T01:22:19;100771.44;;;2.65;96.80
32638;BME280;19045;52.268;10.506;2023-03-05T01:24:45;100772.19;;;2.59;96.86
32638;BME280;19045;52.268;10.506;2023-03-05T01:27:12;100751.81;;;2.59;97.42
32638;BME280;19045;52.268;10.506;2023-03-05T01:29:38;100745.22;;;2.49;98.33
32638;BME280;19045;52.268;10.506;2023-03-05T01:32:05;100748.69;;;2.49;98.42
32638;BME280;19045;52.268;10.506;2023-03-05T01:34:35;100743.75;;;2.40;99.70
32638;BME280;19045;52.268;10.506;2023-03-05T01:37:01;100745.72;;;2.25;100.00
32638;BME280;19045;52.268;10.506;2023-03-05T01:39:28;100732.22;;;2.20;100.00
32638;BME280;19045;52.268;10.506;2023-03-05T01:41:54;100737.97;;;2.23;100.00
32638;BME280;19045;52.268;10.506;2023-03-05T01:44:22;100728.38;;;2.22;100.00
32638;BME280;19045;52.268;10.506;2023-03-05T01:46:49;100733.22;;;2.12;100.00
32638;BME280;19045;52.268;10.506;2023-03-05T01:49:20;100726.47;;;2.09;100.00
32638;BME280;19045;52.268;10.506;2023-03-05T01:51:57;100730.50;;;2.05;100.00
32638;BME280;19045;52.268;10.506;2023-03-05T01:54:27;100725.47;;;2.11;100.00
32638;BME280;19045;52.268;10.506;2023-03-05T01:56:58;100727.91;;;2.12;100.00
32638;BME280;19045;52.268;10.506;2023-03-05T01:59:27;100724.41;;;2.05;100.00
32638;BME280;19045;52.268;10.506;2023-03-05T02:01:55;100724.84;;;2.08;100.00
32638;BME280;19045;52.268;10.506;2023-03-05T02:04:28;100714.91;;;2.17;100.00
32638;BME280;19045;52.268;10.506;2023-03-05T02:06:58;100722.56;;;2.05;100.00
32638;BME280;19045;52.268;10.506;2023-03-05T02:09:25;100705.25;;;2.09;100.00
32638;BME280;19045;52.268;10.506;2023-03-05T02:11:53;100711.66;;;2.22;100.00
32638;BME280;19045;52.268;10.506;2023-03-05T02:14:21;100706.59;;;2.27;100.00
32638;BME280;19045;52.268;10.506;2023-03-05T02:16:48;100700.91;;;2.36;100.00
32638;BME280;19045;52.268;10.506;2023-03-05T02:19:15;100705.19;;;2.31;100.00
32638;BME280;19045;52.268;10.506;2023-03-05T02:21:45;100706.84;;;2.32;100.00
32638;BME280;19045;52.268;10.506;2023-03-05T02:24:12;100702.50;;;2.24;100.00
32638;BME280;19045;52.268;10.506;2023-03-05T02:26:40;100700.50;;;2.33;100.00
32638;BME280;19045;52.268;10.506;2023-03-05T02:29:08;100692.53;;;2.33;100.00
32638;BME280;19045;52.268;10.506;2023-03-05T02:31:35;100697.44;;;2.36;100.00
32638;BME280;19045;52.268;10.506;2023-03-05T02:34:03;100684.41;;;2.34;100.00
32638;BME280;19045;52.268;10.506;2023-03-05T02:36:30;100687.06;;;2.34;100.00
32638;BME280;19045;52.268;10.506;2023-03-05T02:38:58;100684.19;;;2.36;100.00
32638;BME280;19045;52.268;10.506;2023-03-05T02:41:25;100694.63;;;2.44;100.00
32638;BME280;19045;52.268;10.506;2023-03-05T02:43:52;100685.06;;;2.49;100.00
32638;BME280;19045;52.268;10.506;2023-03-05T02:46:18;100682.00;;;2.46;100.00
32638;BME280;19045;52.268;10.506;2023-03-05T02:48:45;100680.16;;;2.46;100.00
32638;BME280;19045;52.268;10.506;2023-03-05T02:51:11;100674.84;;;2.40;100.00
32638;BME280;19045;52.268;10.506;2023-03-05T02:53:38;100672.00;;;2.41;100.00
32638;BME280;19045;52.268;10.506;2023-03-05T02:56:06;100673.16;;;2.32;100.00
32638;BME280;19045;52.268;10.506;2023-03-05T02:58:33;100669.47;;;2.27;100.00
32638;BME280;19045;52.268;10.506;2023-03-05T03:00:59;100657.66;;;2.29;100.00
32638;BME280;19045;52.268;10.506;2023-03-05T03:03:26;100657.22;;;2.26;100.00
32638;BME280;19045;52.268;10.506;2023-03-05T03:05:52;100659.09;;;2.25;100.00
32638;BME280;19045;52.268;10.506;2023-03-05T03:08:19;100657.03;;;2.21;100.00
32638;BME280;19045;52.268;10.506;2023-03-05T03:10:46;100656.19;;;2.20;100.00
32638;BME280;19045;52.268;10.506;2023-03-05T03:13:14;100645.19;;;2.17;100.00
32638;BME280;19045;52.268;10.506;2023-03-05T03:15:40;100652.19;;;2.31;100.00
32638;BME280;19045;52.268;10.506;2023-03-05T03:18:07;100649.31;;;2.32;100.00
32638;BME280;19045;52.268;10.506;2023-03-05T03:20:36;100650.97;;;2.33;100.00
32638;BME280;19045;52.268;10.506;2023-03-05T03:23:03;100647.09;;;2.36;100.00
32638;BME280;19045;52.268;10.506;2023-03-05T03:25:30;100648.34;;;2.40;100.00
32638;BME280;19045;52.268;10.506;2023-03-05T03:27:57;100639.53;;;2.33;100.00
32638;BME280;19045;52.268;10.506;2023-03-05T03:30:25;100628.34;;;2.37;100.00
32638;BME280;19045;52.268;10.506;2023-03-05T03:32:52;100629.97;;;2.32;100.00
32638;BME280;19045;52.268;10.506;2023-03-05T03:35:18;100622.56;;;2.21;100.00
32638;BME280;19045;52.268;10.506;2023-03-05T03:37:46;100625.38;;;2.13;100.00
32638;BME280;19045;52.268;10.506;2023-03-05T03:40:13;100615.88;;;2.25;100.00
32638;BME280;19045;52.268;10.506;2023-03-05T03:42:39;100613.19;;;2.18;100.00
32638;BME280;19045;52.268;10.506;2023-03-05T03:45:07;100613.38;;;2.17;100.00
32638;BME280;19045;52.268;10.506;2023-03-05T03:47:35;100617.03;;;2.16;100.00
32638;BME280;19045;52.268;10.506;2023-03-05T03:50:02;100613.75;;;2.07;100.00
32638;BME280;19045;52.268;10.506;2023-03-05T03:52:29;100602.16;;;2.08;100.00
32638;BME280;19045;52.268;10.506;2023-03-05T03:54:55;100603.34;;;2.05;100.00
32638;BME280;19045;52.268;10.506;2023-03-05T03:57:26;100600.06;;;2.03;100.00
32638;BME280;19045;52.268;10.506;2023-03-05T03:59:53;100601.31;;;2.07;100.00
32638;BME280;19045;52.268;10.506;2023-03-05T04:02:20;100593.19;;;2.16;100.00
32638;BME280;19045;52.268;10.506;2023-03-05T04:04:47;100592.84;;;2.25;100.00
32638;BME280;19045;52.268;10.506;2023-03-05T04:07:14;100588.16;;;2.34;100.00
32638;BME280;19045;52.268;10.506;2023-03-05T04:09:41;100581.00;;;2.21;100.00
32638;BME280;19045;52.268;10.506;2023-03-05T04:12:08;100591.16;;;2.18;100.00
32638;BME280;19045;52.268;10.506;2023-03-05T04:14:34;100574.91;;;2.27;100.00
32638;BME280;19045;52.268;10.506;2023-03-05T04:17:01;100578.94;;;2.23;100.00
32638;BME280;19045;52.268;10.506;2023-03-05T04:19:28;100570.84;;;2.31;100.00
32638;BME280;19045;52.268;10.506;2023-03-05T04:21:56;100573.50;;;2.31;100.00
32638;BME280;19045;52.268;10.506;2023-03-05T04:24:23;100577.94;;;2.24;100.00
32638;BME280;19045;52.268;10.506;2023-03-05T04:26:50;100568.56;;;2.22;100.00
32638;BME280;19045;52.268;10.506;2023-03-05T04:29:17;100569.16;;;2.24;100.00
32638;BME280;19045;52.268;10.506;2023-03-05T04:31:43;100568.16;;;2.25;100.00
32638;BME280;19045;52.268;10.506;2023-03-05T04:34:10;100557.78;;;2.30;100.00
32638;BME280;19045;52.268;10.506;2023-03-05T04:36:36;100565.50;;;2.25;100.00
32638;BME280;19045;52.268;10.506;2023-03-05T04:39:04;100557.56;;;2.25;100.00
32638;BME280;19045;52.268;10.506;2023-03-05T04:41:31;100561.22;;;2.24;100.00
32638;BME280;19045;52.268;10.506;2023-03-05T04:43:57;100559.19;;;2.32;100.00
32638;BME280;19045;52.268;10.506;2023-03-05T04:46:24;100555.53;;;2.33;100.00
32638;BME280;19045;52.268;10.506;2023-03-05T04:48:50;100546.56;;;2.28;100.00
32638;BME280;19045;52.268;10.506;2023-03-05T04:51:17;100553.72;;;2.34;100.00
32638;BME280;19045;52.268;10.506;2023-03-05T04:53:44;100551.25;;;2.32;100.00
32638;BME280;19045;52.268;10.506;2023-03-05T04:56:11;100547.56;;;2.27;100.00
32638;BME280;19045;52.268;10.506;2023-03-05T04:58:38;100547.00;;;2.38;100.00
32638;BME280;19045;52.268;10.506;2023-03-05T05:01:05;100547.59;;;2.40;100.00
32638;BME280;19045;52.268;10.506;2023-03-05T05:03:33;100539.47;;;2.41;100.00
32638;BME280;19045;52.268;10.506;2023-03-05T05:06:00;100536.00;;;2.41;100.00
32638;BME280;19045;52.268;10.506;2023-03-05T05:08:27;100534.34;;;2.40;100.00
32638;BME280;19045;52.268;10.506;2023-03-05T05:10:55;100536.81;;;2.35;100.00
32638;BME280;19045;52.268;10.506;2023-03-05T05:13:23;100533.31;;;2.28;100.00
32638;BME280;19045;52.268;10.506;2023-03-05T05:15:51;100539.03;;;2.31;100.00
32638;BME280;19045;52.268;10.506;2023-03-05T05:18:18;100527.38;;;2.26;100.00
32638;BME280;19045;52.268;10.506;2023-03-05T05:20:45;100541.03;;;2.29;100.00
32638;BME280;19045;52.268;10.506;2023-03-05T05:23:11;100527.59;;;2.31;100.00
32638;BME280;19045;52.268;10.506;2023-03-05T05:25:38;100532.50;;;2.27;100.00
32638;BME280;19045;52.268;10.506;2023-03-05T05:28:05;100529.03;;;2.27;100.00
32638;BME280;19045;52.268;10.506;2023-03-05T05:30:33;100521.28;;;2.19;100.00
32638;BME280;19045;52.268;10.506;2023-03-05T05:32:59;100523.72;;;2.27;100.00
32638;BME280;19045;52.268;10.506;2023-03-05T05:35:26;100522.31;;;2.37;100.00
32638;BME280;19045;52.268;10.506;2023-03-05T05:37:52;100529.66;;;2.35;100.00
32638;BME280;19045;52.268;10.506;2023-03-05T05:40:19;100532.50;;;2.34;100.00
32638;BME280;19045;52.268;10.506;2023-03-05T05:42:46;100529.25;;;2.38;100.00
32638;BME280;19045;52.268;10.506;2023-03-05T05:45:12;100534.16;;;2.35;100.00
32638;BME280;19045;52.268;10.506;2023-03-05T05:47:40;100530.28;;;2.37;100.00
32638;BME280;19045;52.268;10.506;2023-03-05T05:50:08;100529.25;;;2.38;100.00
32638;BME280;19045;52.268;10.506;2023-03-05T05:52:34;100522.31;;;2.37;100.00
32638;BME280;19045;52.268;10.506;2023-03-05T05:55:01;100517.59;;;2.26;100.00
32638;BME280;19045;52.268;10.506;2023-03-05T05:57:27;100522.09;;;2.39;100.00
32638;BME280;19045;52.268;10.506;2023-03-05T05:59:54;100518.44;;;2.33;100.00
32638;BME280;19045;52.268;10.506;2023-03-05T06:02:21;100522.50;;;2.36;100.00
32638;BME280;19045;52.268;10.506;2023-03-05T06:04:48;100528.44;;;2.38;100.00
32638;BME280;19045;52.268;10.506;2023-03-05T06:07:15;100517.84;;;2.38;100.00
32638;BME280;19045;52.268;10.506;2023-03-05T06:09:42;100524.38;;;2.42;100.00
32638;BME280;19045;52.268;10.506;2023-03-05T06:12:08;100520.25;;;2.33;100.00
32638;BME280;19045;52.268;10.506;2023-03-05T06:14:35;100521.91;;;2.34;100.00
32638;BME280;19045;52.268;10.506;2023-03-05T06:17:02;100526.41;;;2.40;100.00
32638;BME280;19045;52.268;10.506;2023-03-05T06:19:28;100522.94;;;2.46;100.00
32638;BME280;19045;52.268;10.506;2023-03-05T06:21:56;100529.69;;;2.42;100.00
32638;BME280;19045;52.268;10.506;2023-03-05T06:24:23;100520.66;;;2.30;100.00
32638;BME280;19045;52.268;10.506;2023-03-05T06:26:49;100524.31;;;2.29;100.00
32638;BME280;19045;52.268;10.506;2023-03-05T06:29:16;100523.13;;;2.31;100.00
32638;BME280;19045;52.268;10.506;2023-03-05T06:31:43;100513.78;;;2.42;100.00
32638;BME280;19045;52.268;10.506;2023-03-05T06:34:09;100520.69;;;2.36;100.00
32638;BME280;19045;52.268;10.506;2023-03-05T06:36:37;100526.81;;;2.43;100.00
32638;BME280;19045;52.268;10.506;2023-03-05T06:39:08;100515.41;;;2.56;100.00
32638;BME280;19045;52.268;10.506;2023-03-05T06:41:34;100507.03;;;2.59;100.00
32638;BME280;19045;52.268;10.506;2023-03-05T06:44:01;100513.38;;;2.58;100.00
32638;BME280;19045;52.268;10.506;2023-03-05T06:46:29;100512.34;;;2.59;100.00
32638;BME280;19045;52.268;10.506;2023-03-05T06:48:58;100510.09;;;2.69;100.00
32638;BME280;19045;52.268;10.506;2023-03-05T06:51:26;100506.84;;;2.67;100.00
32638;BME280;19045;52.268;10.506;2023-03-05T06:53:54;100511.16;;;2.75;100.00
32638;BME280;19045;52.268;10.506;2023-03-05T06:56:22;100506.25;;;2.65;100.00
32638;BME280;19045;52.268;10.506;2023-03-05T06:58:50;100504.19;;;2.67;100.00
32638;BME280;19045;52.268;10.506;2023-03-05T07:01:18;100513.38;;;2.71;100.00
32638;BME280;19045;52.268;10.506;2023-03-05T07:03:47;100505.03;;;2.81;100.00
32638;BME280;19045;52.268;10.506;2023-03-05T07:06:14;100503.59;;;2.85;100.00
32638;BME280;19045;52.268;10.506;2023-03-05T07:08:42;100503.78;;;2.77;100.00
32638;BME280;19045;52.268;10.506;2023-03-05T07:11:09;100498.66;;;2.82;100.00
32638;BME280;19045;52.268;10.506;2023-03-05T07:13:37;100500.31;;;2.89;100.00
32638;BME280;19045;52.268;10.506;2023-03-05T07:16:05;100496.25;;;2.87;100.00
32638;BME280;19045;52.268;10.506;2023-03-05T07:18:32;100508.69;;;2.86;100.00
32638;BME280;19045;52.268;10.506;2023-03-05T07:21:01;100493.19;;;2.83;100.00
32638;BME280;19045;52.268;10.506;2023-03-05T07:23:27;100489.09;;;2.87;100.00
32638;BME280;19045;52.268;10.506;2023-03-05T07:25:54;100495.63;;;2.91;100.00
32638;BME280;19045;52.268;10.506;2023-03-05T07:28:21;100497.25;;;2.86;100.00
32638;BME280;19045;52.268;10.506;2023-03-05T07:30:55;100494.59;;;2.79;100.00
32638;BME280;19045;52.268;10.506;2023-03-05T07:33:22;100493.78;;;2.79;100.00
32638;BME280;19045;52.268;10.506;2023-03-05T07:35:49;100492.97;;;2.91;100.00
32638;BME280;19045;52.268;10.506;2023-03-05T07:38:15;100490.53;;;2.90;100.00
32638;BME280;19045;52.268;10.506;2023-03-05T07:40:42;100484.63;;;2.88;100.00
32638;BME280;19045;52.268;10.506;2023-03-05T07:43:09;100487.69;;;2.91;100.00
32638;BME280;19045;52.268;10.506;2023-03-05T07:45:38;100494.56;;;3.12;100.00
32638;BME280;19045;52.268;10.506;2023-03-05T07:48:07;100491.72;;;3.20;100.00
32638;BME280;19045;52.268;10.506;2023-03-05T07:50:34;100483.91;;;3.25;100.00
32638;BME280;19045;52.268;10.506;2023-03-05T07:53:01;100475.75;;;3.33;100.00
32638;BME280;19045;52.268;10.506;2023-03-05T07:55:27;100486.75;;;3.43;100.00
32638;BME280;19045;52.268;10.506;2023-03-05T07:57:54;100485.47;;;3.59;100.00
32638;BME280;19045;52.268;10.506;2023-03-05T08:00:21;100477.38;;;3.85;100.00
32638;BME280;19045;52.268;10.506;2023-03-05T08:02:47;100480.97;;;4.04;100.00
32638;BME280;19045;52.268;10.506;2023-03-05T08:05:16;100478.19;;;4.24;99.39
32638;BME280;19045;52.268;10.506;2023-03-05T08:07:42;100474.75;;;4.16;98.01
32638;BME280;19045;52.268;10.506;2023-03-05T08:10:10;100472.78;;;4.37;96.85
32638;BME280;19045;52.268;10.506;2023-03-05T08:12:36;100471.69;;;4.44;96.67
32638;BME280;19045;52.268;10.506;2023-03-05T08:15:03;100469.66;;;4.46;96.48
32638;BME280;19045;52.268;10.506;2023-03-05T08:17:30;100463.22;;;4.29;96.41
32638;BME280;19045;52.268;10.506;2023-03-05T08:19:57;100471.75;;;4.06;96.49
32638;BME280;19045;52.268;10.506;2023-03-05T08:22:26;100463.81;;;4.00;97.14
32638;BME280;19045;52.268;10.506;2023-03-05T08:24:52;100468.69;;;3.65;97.13
32638;BME280;19045;52.268;10.506;2023-03-05T08:27:19;100465.59;;;3.68;99.06
32638;BME280;19045;52.268;10.506;2023-03-05T08:29:45;100469.88;;;3.69;98.79
32638;BME280;19045;52.268;10.506;2023-03-05T08:32:12;100468.44;;;3.73;99.17
32638;BME280;19045;52.268;10.506;2023-03-05T08:34:38;100475.19;;;3.76;99.73
32638;BME280;19045;52.268;10.506;2023-03-05T08:37:05;100474.00;;;3.65;99.79
32638;BME280;19045;52.268;10.506;2023-03-05T08:39:34;100467.13;;;3.51;100.00
32638;BME280;19045;52.268;10.506;2023-03-05T08:42:01;100465.50;;;3.43;100.00
32638;BME280;19045;52.268;10.506;2023-03-05T08:44:28;100470.59;;;3.45;100.00
32638;BME280;19045;52.268;10.506;2023-03-05T08:46:55;100462.66;;;3.38;100.00
32638;BME280;19045;52.268;10.506;2023-03-05T08:49:22;100461.19;;;3.49;100.00
32638;BME280;19045;52.268;10.506;2023-03-05T08:51:48;100454.84;;;3.56;100.00
32638;BME280;19045;52.268;10.506;2023-03-05T08:54:15;100454.84;;;3.56;100.00
32638;BME280;19045;52.268;10.506;2023-03-05T08:56:43;100459.09;;;3.64;100.00
32638;BME280;19045;52.268;10.506;2023-03-05T08:59:10;100455.78;;;3.69;100.00
32638;BME280;19045;52.268;10.506;2023-03-05T09:01:36;100456.38;;;3.77;100.00
32638;BME280;19045;52.268;10.506;2023-03-05T09:04:03;100459.94;;;3.96;100.00
32638;BME280;19045;52.268;10.506;2023-03-05T09:06:30;100460.84;;;4.14;100.00
32638;BME280;19045;52.268;10.506;2023-03-05T09:08:56;100449.09;;;4.29;97.50
32638;BME280;19045;52.268;10.506;2023-03-05T09:11:23;100446.88;;;4.57;95.49
32638;BME280;19045;52.268;10.506;2023-03-05T09:13:51;100442.91;;;4.84;93.37
32638;BME280;19045;52.268;10.506;2023-03-05T09:16:19;100438.59;;;5.08;91.70
32638;BME280;19045;52.268;10.506;2023-03-05T09:18:46;100435.19;;;5.19;90.68
32638;BME280;19045;52.268;10.506;2023-03-05T09:21:14;100435.41;;;4.99;89.84
32638;BME280;19045;52.268;10.506;2023-03-05T09:23:41;100436.22;;;5.00;90.39
32638;BME280;19045;52.268;10.506;2023-03-05T09:26:10;100435.63;;;4.98;89.15
32638;BME280;19045;52.268;10.506;2023-03-05T09:28:37;100438.78;;;4.88;89.49
32638;BME280;19045;52.268;10.506;2023-03-05T09:31:06;100425.66;;;4.68;90.26
32638;BME280;19045;52.268;10.506;2023-03-05T09:33:34;100431.81;;;4.44;91.50
32638;BME280;19045;52.268;10.506;2023-03-05T09:36:01;100432.19;;;4.23;92.96
32638;BME280;19045;52.268;10.506;2023-03-05T09:38:28;100430.34;;;4.24;94.84
32638;BME280;19045;52.268;10.506;2023-03-05T09:40:58;100439.97;;;4.49;93.94
32638;BME280;19045;52.268;10.506;2023-03-05T09:43:38;100433.50;;;5.06;90.40
32638;BME280;19045;52.268;10.506;2023-03-05T09:46:19;100420.22;;;5.54;87.70
32638;BME280;19045;52.268;10.506;2023-03-05T09:48:50;100420.69;;;5.81;86.97
32638;BME280;19045;52.268;10.506;2023-03-05T09:51:21;100407.84;;;6.08;83.88
32638;BME280;19045;52.268;10.506;2023-03-05T09:53:54;100416.97;;;6.53;79.32
32638;BME280;19045;52.268;10.506;2023-03-05T09:56:28;100414.53;;;6.52;77.65
32638;BME280;19045;52.268;10.506;2023-03-05T09:58:58;100417.28;;;6.22;78.83
32638;BME280;19045;52.268;10.506;2023-03-05T10:01:35;100421.38;;;6.48;79.04
32638;BME280;19045;52.268;10.506;2023-03-05T10:04:09;100410.13;;;7.15;76.14
32638;BME280;19045;52.268;10.506;2023-03-05T10:06:39;100418.97;;;7.84;71.15
32638;BME280;19045;52.268;10.506;2023-03-05T10:09:14;100418.19;;;8.45;69.45
32638;BME280;19045;52.268;10.506;2023-03-05T10:11:49;100406.28;;;10.00;62.01
32638;BME280;19045;52.268;10.506;2023-03-05T10:14:25;100414.88;;;10.23;58.91
32638;BME280;19045;52.268;10.506;2023-03-05T10:17:00;100410.81;;;9.94;58.07
32638;BME280;19045;52.268;10.506;2023-03-05T10:19:42;100403.00;;;9.44;58.03
32638;BME280;19045;52.268;10.506;2023-03-05T10:22:17;100411.91;;;8.23;61.17
32638;BME280;19045;52.268;10.506;2023-03-05T10:24:56;100414.25;;;7.35;64.92
32638;BME280;19045;52.268;10.506;2023-03-05T10:27:33;100402.81;;;6.30;67.59
32638;BME280;19045;52.268;10.506;2023-03-05T10:30:15;100411.63;;;5.89;70.06
32638;BME280;19045;52.268;10.506;2023-03-05T10:32:53;100404.19;;;5.43;73.57
32638;BME280;19045;52.268;10.506;2023-03-05T10:35:37;100407.84;;;5.30;75.56
32638;BME280;19045;52.268;10.506;2023-03-05T10:41:15;100402.19;;;5.38;74.79
32638;BME280;19045;52.268;10.506;2023-03-05T10:43:53;100403.63;;;5.22;75.64
32638;BME280;19045;52.268;10.506;2023-03-05T10:46:30;100396.50;;;4.98;77.91
32638;BME280;19045;52.268;10.506;2023-03-05T10:49:02;100399.38;;;4.79;78.94
32638;BME280;19045;52.268;10.506;2023-03-05T10:51:34;100402.38;;;4.64;79.21
32638;BME280;19045;52.268;10.506;2023-03-05T10:54:10;100402.91;;;4.73;79.01
32638;BME280;19045;52.268;10.506;2023-03-05T10:56:39;100391.94;;;5.05;78.66
32638;BME280;19045;52.268;10.506;2023-03-05T10:59:06;100399.59;;;5.50;76.72
32638;BME280;19045;52.268;10.506;2023-03-05T11:01:34;100388.88;;;5.56;74.80
32638;BME280;19045;52.268;10.506;2023-03-05T11:04:04;100382.53;;;5.39;75.38
32638;BME280;19045;52.268;10.506;2023-03-05T11:06:33;100370.47;;;5.18;76.12
32638;BME280;19045;52.268;10.506;2023-03-05T11:09:25;100365.44;;;5.10;76.70
32638;BME280;19045;52.268;10.506;2023-03-05T11:12:14;100374.94;;;5.06;76.75
32638;BME280;19045;52.268;10.506;2023-03-05T11:14:44;100363.75;;;5.16;76.22
32638;BME280;19045;52.268;10.506;2023-03-05T11:17:30;100365.31;;;6.13;74.10
32638;BME280;19045;52.268;10.506;2023-03-05T11:20:29;100363.16;;;7.59;66.46
32638;BME280;19045;52.268;10.506;2023-03-05T11:23:10;100363.53;;;7.96;65.86
32638;BME280;19045;52.268;10.506;2023-03-05T11:25:51;100359.34;;;8.00;65.48
32638;BME280;19045;52.268;10.506;2023-03-05T11:28:20;100353.91;;;7.78;64.83
32638;BME280;19045;52.268;10.506;2023-03-05T11:30:54;100347.16;;;7.76;63.46
32638;BME280;19045;52.268;10.506;2023-03-05T11:33:22;100351.84;;;7.86;64.35
32638;BME280;19045;52.268;10.506;2023-03-05T11:35:52;100356.78;;;7.20;63.97
32638;BME280;19045;52.268;10.506;2023-03-05T11:38:22;100341.41;;;6.99;64.86
32638;BME280;19045;52.268;10.506;2023-03-05T11:40:50;100335.88;;;6.66;66.89
32638;BME280;19045;52.268;10.506;2023-03-05T11:43:19;100340.53;;;6.36;68.23
32638;BME280;19045;52.268;10.506;2023-03-05T11:45:48;100343.38;;;6.11;70.07
32638;BME280;19045;52.268;10.506;2023-03-05T11:48:19;100341.44;;;5.77;73.12
32638;BME280;19045;52.268;10.506;2023-03-05T11:50:48;100337.53;;;5.61;75.41
32638;BME280;19045;52.268;10.506;2023-03-05T11:53:21;100325.44;;;5.77;77.82
32638;BME280;19045;52.268;10.506;2023-03-05T11:55:52;100327.41;;;7.20;74.62
32638;BME280;19045;52.268;10.506;2023-03-05T11:58:27;100317.47;;;8.99;64.13
32638;BME280;19045;52.268;10.506;2023-03-05T12:00:56;100306.41;;;9.66;62.58
32638;BME280;19045;52.268;10.506;2023-03-05T12:03:24;100306.03;;;11.92;54.22
32638;BME280;19045;52.268;10.506;2023-03-05T12:05:53;100299.53;;;12.28;50.90
32638;BME280;19045;52.268;10.506;2023-03-05T12:08:27;100290.59;;;13.32;48.11
32638;BME280;19045;52.268;10.506;2023-03-05T12:10:56;100292.31;;;13.18;48.32
32638;BME280;19045;52.268;10.506;2023-03-05T12:13:28;100288.78;;;11.98;50.59
32638;BME280;19045;52.268;10.506;2023-03-05T12:16:11;100284.44;;;10.32;54.08
32638;BME280;19045;52.268;10.506;2023-03-05T12:18:52;100291.50;;;8.78;58.75
32638;BME280;19045;52.268;10.506;2023-03-05T12:21:29;100286.91;;;7.57;60.29
32638;BME280;19045;52.268;10.506;2023-03-05T12:24:01;100278.16;;;6.88;63.20
32638;BME280;19045;52.268;10.506;2023-03-05T12:26:53;100273.56;;;6.60;64.95
32638;BME280;19045;52.268;10.506;2023-03-05T12:29:28;100275.22;;;6.38;66.42
32638;BME280;19045;52.268;10.506;2023-03-05T12:31:56;100271.72;;;6.49;68.09
32638;BME280;19045;52.268;10.506;2023-03-05T12:34:56;100263.78;;;6.78;67.62
32638;BME280;19045;52.268;10.506;2023-03-05T12:38:01;100265.94;;;6.92;66.71
32638;BME280;19045;52.268;10.506;2023-03-05T12:40:31;100257.88;;;7.04;66.05
32638;BME280;19045;52.268;10.506;2023-03-05T12:42:59;100261.16;;;6.94;66.22
32638;BME280;19045;52.268;10.506;2023-03-05T12:45:32;100254.25;;;6.70;65.86
32638;BME280;19045;52.268;10.506;2023-03-05T12:48:40;100255.59;;;7.24;66.15
32638;BME280;19045;52.268;10.506;2023-03-05T12:51:30;100240.78;;;8.50;58.86
32638;BME280;19045;52.268;10.506;2023-03-05T12:54:24;100232.56;;;8.01;60.52
32638;BME280;19045;52.268;10.506;2023-03-05T12:56:55;100243.28;;;7.23;64.02
32638;BME280;19045;52.268;10.506;2023-03-05T12:59:24;100233.03;;;6.63;65.28